Windom, MN

5:15 AM CDT on July 27, 2017 (GMT -0500)
Windom Municipal

Weather History for KMWM - July, 2013

Change the Weather History Date:

Sunday, July 7, 2013

  Actual Average Record
Temperature  
Mean Temperature 81 °F -  
Max Temperature 91 °F 85 °F 99 °F (1974)
Min Temperature 71 °F 62 °F 48 °F (1958)
Cooling Degree Days 16    
Growing Degree Days 31 (Base 50)    
Moisture  
Dew Point 65 °F    
Average Humidity 62    
Maximum Humidity 73    
Minimum Humidity 41    
Precipitation  
Precipitation 0.00 in - - ()
Sea Level Pressure  
Sea Level Pressure 29.87 in    
Wind  
Wind Speed 6 mph (SSW)    
Max Wind Speed 13 mph    
Max Gust Speed 17 mph    
Visibility 10 miles    
Events Thunderstorm    
Averages and records for this station are not official NWS values.
T = Trace of Precipitation, MM = Missing Value Source: NWS Daily Summary

Daily Weather History Graph

Daily Weather History Graph

Search for Another Location

Airport or City:

Trip Planner

Search our weather history database for the weather conditions in past years. The results will help you decide how hot, cold, wet, or windy it might be!

Date:

Astronomy

Jul. 07, 2013 Rise Set
Actual Time 5:45 AM CDT 9:04 PM CDT
Civil Twilight 5:10 AM CDT 9:40 PM CDT
Nautical Twilight 4:23 AM CDT 10:26 PM CDT
Astronomical Twilight 3:26 AM CDT 11:23 PM CDT
Moon 5:24 AM CDT (7/7) 8:26 PM CDT (7/7)
Length of Visible Light 16h 30m
Length of Day
15h 19m
Waning Crescent, 0% of the Moon is Illuminated
Jul 7
Waning Crescent
Jul 8
New
Jul 15
First Quarter
Jul 22
Full
Jul 29
Last Quarter

Hourly Weather History & Observations

Time (CDT) Temp. Heat Index Dew Point Humidity Pressure Visibility Wind Dir Wind Speed Gust Speed Precip Events Conditions
12:12 AM 75.2 °F - 66.2 °F 73% 29.85 in 10.0 mi South 4.6 mph - N/A   Clear
12:33 AM 77.0 °F - 66.2 °F 69% 29.86 in 10.0 mi South 8.1 mph - N/A   Clear
12:52 AM 75.2 °F - 66.2 °F 73% 29.85 in 10.0 mi South 8.1 mph - N/A   Clear
1:12 AM 77.0 °F - 66.2 °F 69% 29.86 in 10.0 mi South 9.2 mph - N/A   Clear
1:33 AM 75.2 °F - 66.2 °F 73% 29.86 in 10.0 mi South 11.5 mph - N/A   Scattered Clouds
1:53 AM 75.2 °F - 64.4 °F 69% 29.86 in 10.0 mi South 11.5 mph 17.3 mph N/A   Scattered Clouds
2:12 AM 75.2 °F - 64.4 °F 69% 29.85 in 10.0 mi South 12.7 mph 17.3 mph N/A   Scattered Clouds
2:33 AM 75.2 °F - 64.4 °F 69% 29.86 in 10.0 mi South 9.2 mph - N/A   Clear
2:53 AM 75.2 °F - 64.4 °F 69% 29.86 in 10.0 mi South 9.2 mph - N/A   Clear
3:12 AM 73.4 °F - 62.6 °F 69% 29.86 in 10.0 mi South 8.1 mph - N/A   Clear
3:33 AM 73.4 °F - 62.6 °F 69% 29.86 in 10.0 mi South 9.2 mph - N/A   Clear
3:53 AM 73.4 °F - 62.6 °F 69% 29.86 in 10.0 mi South 6.9 mph - N/A   Clear
4:12 AM 71.6 °F - 62.6 °F 73% 29.86 in 10.0 mi South 6.9 mph - N/A   Clear
4:33 AM 71.6 °F - 62.6 °F 73% 29.86 in 10.0 mi SSW 5.8 mph - N/A   Clear
4:53 AM 71.6 °F - 62.6 °F 73% 29.86 in 10.0 mi South 6.9 mph - N/A   Clear
5:12 AM 71.6 °F - 62.6 °F 73% 29.85 in 10.0 mi South 6.9 mph - N/A   Clear
5:33 AM 71.6 °F - 62.6 °F 73% 29.85 in 10.0 mi South 5.8 mph - N/A   Clear
5:53 AM 71.6 °F - 62.6 °F 73% 29.86 in 10.0 mi South 5.8 mph - N/A   Clear
6:12 AM 71.6 °F - 62.6 °F 73% 29.86 in 10.0 mi South 6.9 mph - N/A   Clear
6:33 AM 71.6 °F - 62.6 °F 73% 29.86 in 10.0 mi South 6.9 mph - N/A   Clear
6:53 AM 71.6 °F - 62.6 °F 73% 29.86 in 10.0 mi South 8.1 mph - N/A   Clear
7:12 AM 73.4 °F - 62.6 °F 69% 29.86 in 10.0 mi South 10.4 mph - N/A   Clear
7:33 AM 73.4 °F - 64.4 °F 73% 29.87 in 10.0 mi South 10.4 mph - N/A   Clear
7:53 AM 73.4 °F - 64.4 °F 73% 29.88 in 10.0 mi South 8.1 mph - N/A   Clear
8:12 AM 75.2 °F - 64.4 °F 69% 29.88 in 10.0 mi SSW 9.2 mph - N/A   Clear
8:33 AM 75.2 °F - 64.4 °F 69% 29.88 in 10.0 mi SSW 10.4 mph - N/A   Clear
8:53 AM 77.0 °F - 64.4 °F 65% 29.87 in 10.0 mi SSW 10.4 mph - N/A   Clear
9:12 AM 78.8 °F - 64.4 °F 61% 29.87 in 10.0 mi SW 10.4 mph - N/A   Clear
9:33 AM 78.8 °F - 64.4 °F 61% 29.87 in 10.0 mi SW 10.4 mph - N/A   Clear
9:53 AM 80.6 °F 82.3 °F 64.4 °F 58% 29.87 in 10.0 mi SW 9.2 mph - N/A   Clear
10:12 AM 80.6 °F 82.3 °F 64.4 °F 58% 29.87 in 10.0 mi SW 8.1 mph - N/A   Clear
10:33 AM 82.4 °F 83.9 °F 64.4 °F 54% 29.87 in 10.0 mi Calm Calm - N/A   Clear
10:52 AM 82.4 °F 83.9 °F 64.4 °F 54% 29.87 in 10.0 mi SW 3.5 mph - N/A   Clear
11:12 AM 84.2 °F 86.6 °F 66.2 °F 55% 29.87 in 10.0 mi West 6.9 mph - N/A   Clear
11:33 AM 84.2 °F 85.6 °F 64.4 °F 51% 29.87 in 10.0 mi Calm Calm - N/A   Clear
11:52 AM 84.2 °F 86.6 °F 66.2 °F 55% 29.88 in 10.0 mi Calm Calm - N/A   Clear
12:12 PM 84.2 °F 86.6 °F 66.2 °F 55% 29.88 in 10.0 mi Calm Calm - N/A   Clear
12:33 PM 84.2 °F 85.6 °F 64.4 °F 51% 29.88 in 10.0 mi Calm Calm - N/A   Clear
12:52 PM 86.0 °F 88.2 °F 66.2 °F 51% 29.88 in 10.0 mi ESE 3.5 mph - N/A   Clear
1:12 PM 87.8 °F 90.4 °F 66.2 °F 49% 29.88 in 10.0 mi Calm Calm - N/A   Clear
1:33 PM 87.8 °F 89.4 °F 64.4 °F 46% 29.87 in 10.0 mi Calm Calm - N/A   Clear
1:52 PM 89.6 °F 91.1 °F 64.4 °F 43% 29.87 in 10.0 mi Calm Calm - N/A   Clear
2:12 PM 87.8 °F 89.4 °F 64.4 °F 46% 29.87 in 10.0 mi Calm Calm - N/A   Clear
2:33 PM 89.6 °F 91.1 °F 64.4 °F 43% 29.87 in 10.0 mi Calm Calm - N/A   Clear
2:52 PM 89.6 °F 92.2 °F 66.2 °F 46% 29.87 in 10.0 mi Calm Calm - N/A   Clear
3:12 PM 89.6 °F 92.2 °F 66.2 °F 46% 29.88 in 10.0 mi Calm Calm - N/A   Scattered Clouds
3:33 PM 89.6 °F 92.2 °F 66.2 °F 46% 29.88 in 10.0 mi Calm Calm - N/A   Clear
3:52 PM 89.6 °F 92.2 °F 66.2 °F 46% 29.87 in 10.0 mi Calm Calm - N/A   Mostly Cloudy
4:12 PM 91.4 °F 93.2 °F 64.4 °F 41% 29.87 in 10.0 mi Calm Calm - N/A   Mostly Cloudy
4:33 PM 89.6 °F 92.2 °F 66.2 °F 46% 29.87 in 10.0 mi West 5.8 mph - N/A   Scattered Clouds
4:52 PM 89.6 °F 92.2 °F 66.2 °F 46% 29.87 in 10.0 mi Calm Calm - N/A   Clear
5:12 PM 89.6 °F 92.2 °F 66.2 °F 46% 29.87 in 10.0 mi Calm Calm - N/A   Clear
5:33 PM 87.8 °F 90.4 °F 66.2 °F 49% 29.86 in 10.0 mi NW 3.5 mph - N/A   Clear
5:52 PM 87.8 °F 92.6 °F 69.8 °F 55% 29.86 in 10.0 mi North 5.8 mph - N/A   Clear
6:13 PM 87.8 °F 92.6 °F 69.8 °F 55% 29.86 in 10.0 mi North 5.8 mph - N/A   Clear
6:32 PM 86.0 °F 90.4 °F 69.8 °F 58% 29.86 in 10.0 mi NNE 6.9 mph - N/A   Clear
6:52 PM 86.0 °F 90.4 °F 69.8 °F 58% 29.87 in 10.0 mi North 4.6 mph - N/A   Clear
7:13 PM 84.2 °F 88.4 °F 69.8 °F 62% 29.87 in 10.0 mi NNW 6.9 mph - N/A   Clear
7:32 PM 84.2 °F 89.6 °F 71.6 °F 66% 29.87 in 10.0 mi NNW 6.9 mph - N/A   Scattered Clouds
7:53 PM 84.2 °F 89.6 °F 71.6 °F 66% 29.87 in 10.0 mi NNW 10.4 mph - N/A   Clear
8:12 PM 84.2 °F 89.6 °F 71.6 °F 66% 29.89 in 10.0 mi NNW 8.1 mph - N/A Thunderstorm Scattered Clouds
8:32 PM 84.2 °F 89.6 °F 71.6 °F 66% 29.88 in 10.0 mi NW 9.2 mph - N/A Thunderstorm Scattered Clouds
8:53 PM 78.8 °F - 64.4 °F 61% 29.88 in 10.0 mi North 9.2 mph 17.3 mph N/A   Scattered Clouds
9:12 PM 77.0 °F - 64.4 °F 65% 29.88 in 10.0 mi North 6.9 mph - N/A   Clear
9:32 PM 75.2 °F - 64.4 °F 69% 29.90 in 10.0 mi Calm Calm - N/A   Clear
9:53 PM 75.2 °F - 64.4 °F 69% 29.91 in 10.0 mi Calm Calm - N/A Thunderstorm Scattered Clouds
10:12 PM 75.2 °F - 64.4 °F 69% 29.94 in 10.0 mi Calm Calm - N/A Thunderstorm Mostly Cloudy
10:32 PM 77.0 °F - 66.2 °F 69% 29.94 in 10.0 mi Calm Calm - N/A   Mostly Cloudy
10:53 PM 75.2 °F - 66.2 °F 73% 29.93 in 10.0 mi SE 3.5 mph - N/A   Mostly Cloudy
11:12 PM 75.2 °F - 64.4 °F 69% 29.94 in 10.0 mi South 11.5 mph - N/A   Scattered Clouds
11:32 PM 73.4 °F - 64.4 °F 73% 29.94 in 10.0 mi SSW 3.5 mph - N/A   Clear
11:52 PM 73.4 °F - 64.4 °F 73% 29.94 in 10.0 mi Calm Calm - N/A   Clear